• Join FlightAware (Why Join?)
  • Login
  • US Flag 
09:04AM EDT


 

Airport Tracker/Info


-or-


 

Live Flight TrackerFlight Track Log ✈ N672DS ✈ 17-Nov-2013 ✈ KDMW - KDMW

Flight Track Log - Related Links

Times and Time Zones

All times are in EST time to prevent confusion due to time zone crossing. See the N672DS flight status page for this flight to view local times or setup timezone preferences in your user account.

Time Position Orientation Groundspeed Altitude Reporting Facility
EST Latitude Longitude Course Direction KTS MPH feet Rate Location/Type
03:47PM 39.5667 -76.9833 255° West 69 79 2,900  Level Potomac TRACON
03:48PM 39.5667 -77.0167 270° West 100 115 3,100  Climbing Potomac TRACON
03:49PM 39.5667 -77.0500 270° West 113 130 3,000  Descending Potomac TRACON
03:50PM 39.5667 -77.1000 270° West 103 119 3,100  Climbing Potomac TRACON
03:51PM 39.5667 -77.1333 270° West 100 115 3,100  Level Potomac TRACON
03:52PM 39.6083 -77.0077 255° West  Level Estimated
03:52PM 39.5667 -77.1667 270° West 101 116 3,100  Level Potomac TRACON
03:53PM 39.5500 -77.2000 237° Southwest 110 127 2,700 -180 Descending Potomac TRACON
03:54PM 39.5333 -77.2333 237° Southwest 97 112 2,800  Climbing Potomac TRACON
03:55PM 39.5167 -77.2500 218° Southwest 93 107 2,700 -120 Descending Potomac TRACON
03:56PM 39.5000 -77.2833 237° Southwest 97 112 2,600 -60 Descending Potomac TRACON
03:58PM 39.5000 -77.2833 270° West 97 112 2,600  Level Potomac TRACON
04:00PM 39.5000 -77.2833 270° West 97 112 2,600  Level Potomac TRACON
04:02PM 39.5000 -77.2833 270° West 97 112 2,600  Level Potomac TRACON
04:04PM 39.5000 -77.2833 270° West 97 112 2,600 180 Level Potomac TRACON
04:05PM 39.4667 -77.3000 201° Southwest 158 182 3,200 300 Climbing Potomac TRACON
04:06PM 39.4833 -77.2500 67° East 146 168 3,200 120 Level Potomac TRACON
04:07PM 39.4833 -77.2167 90° East 126 145 3,500 360 Climbing Potomac TRACON
04:08PM 39.4667 -77.1667 113° Southeast 126 145 4,000 240 Climbing Potomac TRACON
04:09PM 39.4833 -77.1167 67° East 152 175 4,100  Climbing Potomac TRACON
04:10PM 39.5000 -77.0667 67° East 150 173 4,100 -60 Level Potomac TRACON
04:11PM 39.5000 -77.0167 90° East 147 169 4,000  Descending Potomac TRACON
04:12PM 39.4833 -76.9667 113° Southeast 125 144 4,100  Climbing Potomac TRACON
04:13PM 39.4667 -76.9500 142° Southeast 103 119 4,000 -60 Descending Potomac TRACON
04:14PM 39.4500 -76.9667 218° Southwest 116 133 4,000  Level Potomac TRACON
04:15PM 39.4833 -76.9833 339° North 141 162 4,100  Climbing Potomac TRACON
04:16PM 39.5167 -77.0000 339° North 130 150 4,000  Descending Potomac TRACON
04:17PM 39.5000 -77.0000 180° South 102 117 4,100 60 Climbing Potomac TRACON
04:18PM 39.4667 -76.9833 159° South 96 110 4,200  Climbing Potomac TRACON
04:19PM 39.4500 -76.9833 180° South 122 140 4,100 -180 Descending Potomac TRACON
04:20PM 39.4833 -76.9667 21° North 153 176 3,900 -120 Descending Potomac TRACON
04:21PM 39.5167 -76.9833 339° North 133 153 3,900  Level Potomac TRACON
04:22PM 39.5000 -77.0000 218° Southwest 101 116 4,000  Climbing Potomac TRACON
04:23PM 39.4667 -77.0000 180° South 90 104 3,900 -60 Descending Potomac TRACON
04:24PM 39.4667 -76.9667 90° East 142 163 3,900  Level Potomac TRACON
04:25PM 39.5000 -76.9833 339° North 133 153 4,000  Climbing Potomac TRACON
04:26PM 39.4833 -77.0000 218° Southwest 95 109 4,000  Level Potomac TRACON
04:27PM 39.4667 -77.0000 180° South 96 110 4,000 -60 Level Potomac TRACON
04:28PM 39.4500 -76.9667 123° Southeast 138 159 3,900 -60 Descending Potomac TRACON
04:29PM 39.4833 -76.9667 360° North 136 157 3,900  Level Potomac TRACON
04:30PM 39.5000 -77.0000 303° West 120 138 3,900 -300 Level Potomac TRACON
04:31PM 39.4833 -77.0000 180° South 93 107 3,300 -600 Descending Potomac TRACON
04:32PM 39.4500 -77.0000 180° South 92 106 2,800 -300 Descending Potomac TRACON
04:33PM 39.4667 -76.9667 57° Northeast 141 162 2,800  Level Potomac TRACON
04:34PM 39.5167 -76.9833 346° North 141 162 2,800 -240 Level Potomac TRACON
04:35PM 39.5500 -76.9833 360° North 147 169 2,300 -360 Descending Potomac TRACON
04:36PM 39.5833 -77.0000 339° North 131 151 2,100 -120 Descending Potomac TRACON
04:38PM 39.5833 -77.0000 360° North 131 151 2,100  Level Potomac TRACON
04:40PM 39.5833 -77.0000 360° North 131 151 2,100  Level Potomac TRACON